createdAt,value
2017-09-10T09:26:04.050Z,53.02
2017-09-10T09:27:03.780Z,53.41
2017-09-10T09:28:03.779Z,52.53
2017-09-10T09:29:03.794Z,52.82
2017-09-10T09:30:03.825Z,52.63
2017-09-10T09:31:03.884Z,52.73
2017-09-10T09:32:03.905Z,52.82
2017-09-10T09:33:04.301Z,53.02
2017-09-10T09:34:04.048Z,53.02
2017-09-10T09:35:04.080Z,53.02
2017-09-10T09:36:04.111Z,52.63
2017-09-10T09:37:04.158Z,52.53
2017-09-10T09:38:04.342Z,52.53
2017-09-10T09:39:04.217Z,52.34
2017-09-10T09:40:04.544Z,52.92
2017-09-10T09:41:04.231Z,52.24
2017-09-10T09:42:04.266Z,52.14
2017-09-10T09:43:04.356Z,52.44
2017-09-10T09:44:04.390Z,52.34
2017-09-10T09:45:04.371Z,52.44
2017-09-10T09:46:04.500Z,52.53
2017-09-10T09:47:04.826Z,52.34
2017-09-10T09:48:04.537Z,52.24
2017-09-10T09:49:04.594Z,52.24
2017-09-10T09:50:04.607Z,52.24
2017-09-10T09:51:04.596Z,52.24
2017-09-10T09:52:04.631Z,52.05
2017-09-10T09:53:04.727Z,52.34
2017-09-10T09:54:05.085Z,52.44
2017-09-10T09:55:04.760Z,52.34
2017-09-10T09:56:04.789Z,52.44
2017-09-10T09:57:04.887Z,52.14
2017-09-10T09:58:05.024Z,52.53
2017-09-10T09:59:04.912Z,52.34
2017-09-10T10:00:04.978Z,52.24
2017-09-10T10:01:05.327Z,52.24
2017-09-10T10:02:05.010Z,51.76
2017-09-10T10:03:05.115Z,51.95
2017-09-10T10:04:05.083Z,52.14
2017-09-10T10:06:05.222Z,51.78
2017-09-10T10:07:05.229Z,51.40
2017-09-10T10:08:05.586Z,51.78
2017-09-10T10:09:05.269Z,51.59
2017-09-10T10:10:05.380Z,51.50
2017-09-10T10:11:05.404Z,51.88
2017-09-10T10:12:05.362Z,51.78
2017-09-10T10:13:05.494Z,51.59
2017-09-10T10:14:05.903Z,51.78
2017-09-10T10:15:05.645Z,51.68
2017-09-10T10:16:05.572Z,51.68
2017-09-10T10:17:05.679Z,51.68
2017-09-10T10:18:05.926Z,51.78
2017-09-10T10:19:05.806Z,51.59
2017-09-10T10:20:06.229Z,51.50
2017-09-10T10:21:05.943Z,51.20
2017-09-10T10:22:05.871Z,51.20
2017-09-10T10:23:06.194Z,51.50
2017-09-10T10:24:06.080Z,51.30
2017-09-10T10:25:06.071Z,51.20
2017-09-10T10:26:06.577Z,51.59
2017-09-10T10:27:06.011Z,51.20
2017-09-10T10:28:06.821Z,51.20
2017-09-10T10:29:06.242Z,51.10
2017-09-10T10:30:06.254Z,51.30
2017-09-10T10:31:06.134Z,51.01
2017-09-10T10:32:06.457Z,51.30
2017-09-10T10:33:06.201Z,51.30
2017-09-10T10:34:06.234Z,51.40
2017-09-10T10:35:06.276Z,51.20
2017-09-10T10:36:06.330Z,51.01
2017-09-10T10:37:06.275Z,51.01
2017-09-10T10:38:06.665Z,51.30
2017-09-10T10:39:06.384Z,51.20
2017-09-10T10:40:06.449Z,51.30
2017-09-10T10:41:06.433Z,51.20
2017-09-10T10:42:06.504Z,51.40
2017-09-10T10:43:06.540Z,51.40
2017-09-10T10:44:06.901Z,51.30
2017-09-10T10:45:06.614Z,51.40
2017-09-10T10:46:06.651Z,51.30
2017-09-10T10:47:06.637Z,51.20
2017-09-10T10:48:06.681Z,51.40
2017-09-10T10:49:06.713Z,51.40
2017-09-10T10:50:07.109Z,51.20
2017-09-10T10:51:06.848Z,51.50
2017-09-10T10:52:06.888Z,51.50
2017-09-10T10:53:06.871Z,51.20
2017-09-10T10:54:06.978Z,51.50
2017-09-10T10:55:07.094Z,51.40
2017-09-10T10:57:07.508Z,51.40
2017-09-10T10:58:07.192Z,51.30
2017-09-10T10:59:07.394Z,51.40
2017-09-10T11:00:07.197Z,50.72
2017-09-10T11:01:07.203Z,51.20
2017-09-10T11:02:07.447Z,50.82
2017-09-10T11:03:08.160Z,51.30
2017-09-10T11:04:07.416Z,51.20
2017-09-10T11:05:07.451Z,51.20
2017-09-10T11:06:07.417Z,51.30
2017-09-10T11:07:07.514Z,51.30
2017-09-10T11:08:07.451Z,51.20
2017-09-10T11:09:07.803Z,51.01
2017-09-10T11:10:07.516Z,51.40
2017-09-10T11:11:07.711Z,51.20
2017-09-10T11:12:07.568Z,51.68
2017-09-10T11:13:07.708Z,51.50
2017-09-10T11:14:07.671Z,51.50
2017-09-10T11:15:08.024Z,51.68
2017-09-10T11:16:07.766Z,51.59
2017-09-10T11:17:07.738Z,51.78
2017-09-10T11:18:07.821Z,51.68
2017-09-10T11:19:07.862Z,51.42
2017-09-10T11:20:07.863Z,51.52
2017-09-10T11:21:08.233Z,51.32
2017-09-10T11:22:07.932Z,51.52
2017-09-10T11:23:08.169Z,51.72
2017-09-10T11:24:07.998Z,51.52
2017-09-10T11:25:08.090Z,51.42
2017-09-10T11:26:08.061Z,51.04
2017-09-10T11:27:08.507Z,51.42
2017-09-10T11:28:08.152Z,51.32
2017-09-10T11:29:08.240Z,50.65
2017-09-10T11:30:08.316Z,50.74
2017-09-10T11:31:08.305Z,50.84
2017-09-10T11:32:08.316Z,50.94
2017-09-10T11:33:08.762Z,50.74
2017-09-10T11:34:08.496Z,50.94
2017-09-10T11:35:08.480Z,51.04
2017-09-10T11:36:08.544Z,51.13
2017-09-10T11:37:08.534Z,51.04
2017-09-10T11:38:08.562Z,50.74
2017-09-10T11:39:08.621Z,51.13
2017-09-10T11:40:09.199Z,50.74
2017-09-10T11:41:08.689Z,50.74
2017-09-10T11:42:08.740Z,50.84
2017-09-10T11:43:08.794Z,50.84
2017-09-10T11:44:08.891Z,50.65
2017-09-10T11:45:08.842Z,50.65
2017-09-10T11:46:08.889Z,50.84
2017-09-10T11:47:09.257Z,50.94
2017-09-10T11:48:09.104Z,50.45
2017-09-10T11:49:09.027Z,50.84
2017-09-10T11:50:09.021Z,51.04
2017-09-10T11:51:09.047Z,51.04
2017-09-10T11:52:09.131Z,51.23
2017-09-10T11:53:09.182Z,50.94
2017-09-10T11:54:09.499Z,51.13
2017-09-10T11:55:09.207Z,51.13
2017-09-10T11:56:09.294Z,51.04
2017-09-10T11:57:09.296Z,50.65
2017-09-10T11:58:09.353Z,51.32
2017-09-10T11:59:09.400Z,50.74
2017-09-10T12:00:09.385Z,50.65
2017-09-10T12:01:10.255Z,51.04
2017-09-10T12:02:09.535Z,51.04
2017-09-10T12:03:09.537Z,50.84
2017-09-10T12:04:09.652Z,50.94
2017-09-10T12:05:09.607Z,50.35
2017-09-10T12:06:09.588Z,50.55
2017-09-10T12:07:09.645Z,50.84
2017-09-10T12:08:10.246Z,51.13
2017-09-10T12:09:09.801Z,51.23
2017-09-10T12:10:09.755Z,50.65
2017-09-10T12:11:10.010Z,50.84
2017-09-10T12:12:10.069Z,50.94
2017-09-10T12:13:09.862Z,50.35
2017-09-10T12:14:10.004Z,50.84
2017-09-10T12:15:10.334Z,50.74
2017-09-10T12:16:10.003Z,50.84
2017-09-10T12:17:10.043Z,51.13
2017-09-10T12:18:10.058Z,50.74
2017-09-10T12:19:10.112Z,51.23
2017-09-10T12:20:10.145Z,50.65
2017-09-10T12:21:10.162Z,50.74
2017-09-10T12:22:10.587Z,50.74
2017-09-10T12:23:10.285Z,51.04
2017-09-10T12:24:10.274Z,51.13
2017-09-10T12:25:10.298Z,50.94
2017-09-10T12:26:10.361Z,50.94
2017-09-10T12:27:10.382Z,51.13
2017-09-10T12:28:10.422Z,50.55
2017-09-10T12:29:10.880Z,50.84
2017-09-10T12:30:10.529Z,50.45
2017-09-10T12:31:10.585Z,50.57
2017-09-10T12:32:10.609Z,50.38
2017-09-10T12:33:10.633Z,50.55
2017-09-10T12:34:10.696Z,50.48
2017-09-10T12:35:10.697Z,50.35
2017-09-10T12:36:11.823Z,50.38
2017-09-10T12:38:10.795Z,50.19
2017-09-10T12:39:10.875Z,50.38
2017-09-10T12:40:10.797Z,50.57
2017-09-10T12:41:10.878Z,50.38
2017-09-10T12:42:10.950Z,50.57
2017-09-10T12:43:11.262Z,50.19
2017-09-10T12:44:11.000Z,50.29
2017-09-10T12:45:11.039Z,50.29
2017-09-10T12:46:11.037Z,50.29
2017-09-10T12:47:11.114Z,50.38
2017-09-10T12:48:11.395Z,50.29
2017-09-10T12:49:11.210Z,50.29
2017-09-10T12:51:11.521Z,49.90
2017-09-10T12:52:11.341Z,49.90
2017-09-10T12:53:11.316Z,49.70
2017-09-10T12:55:11.383Z,49.80
2017-09-10T12:56:11.411Z,49.90
2017-09-10T12:57:11.448Z,49.90
2017-09-10T12:58:12.885Z,49.80
2017-09-10T12:59:11.584Z,49.51
2017-09-10T13:00:11.620Z,49.90
2017-09-10T13:01:11.665Z,49.90
2017-09-10T13:02:12.779Z,49.90
2017-09-10T13:03:11.765Z,49.80
2017-09-10T13:04:11.808Z,49.70
2017-09-10T13:05:12.206Z,49.70
2017-09-10T13:06:11.941Z,49.99
2017-09-10T13:07:12.064Z,49.90
2017-09-10T13:08:11.922Z,50.09
2017-09-10T13:09:11.968Z,50.09
2017-09-10T13:10:11.944Z,49.90
2017-09-10T13:11:12.314Z,49.99
2017-09-10T13:12:12.059Z,50.12
2017-09-10T13:13:12.051Z,49.92
2017-09-10T13:14:12.075Z,49.82
2017-09-10T13:15:12.122Z,50.09
2017-09-10T13:16:12.252Z,49.92
2017-09-10T13:17:12.550Z,49.99
2017-09-10T13:18:12.230Z,50.19
2017-09-10T13:19:12.310Z,49.82
2017-09-10T13:20:12.471Z,49.90
2017-09-10T13:21:12.427Z,49.54
2017-09-10T13:22:12.435Z,49.44
2017-09-10T13:23:12.780Z,49.63
2017-09-10T13:24:12.449Z,49.54
2017-09-10T13:25:12.485Z,49.54
2017-09-10T13:26:12.578Z,49.15
2017-09-10T13:27:12.567Z,49.15
2017-09-10T13:28:12.667Z,48.95
2017-09-10T13:29:12.987Z,48.85
2017-09-10T13:30:12.725Z,48.88
2017-09-10T13:31:12.737Z,48.85
2017-09-10T13:32:12.803Z,48.88
2017-09-10T13:33:12.834Z,48.78
2017-09-10T13:34:12.881Z,48.97
2017-09-10T13:35:13.221Z,48.49
2017-09-10T13:36:12.917Z,48.78
2017-09-10T13:37:12.963Z,48.59
2017-09-10T13:38:13.040Z,48.69
2017-09-10T13:39:13.074Z,48.20
2017-09-10T13:40:13.152Z,48.49
2017-09-10T13:41:13.472Z,48.69
2017-09-10T13:42:13.166Z,48.59
2017-09-10T13:43:13.260Z,48.69
2017-09-10T13:44:13.263Z,48.57
2017-09-10T13:45:13.350Z,48.47
2017-09-10T13:46:13.300Z,48.76
2017-09-10T13:47:13.656Z,48.85
2017-09-10T13:48:13.426Z,48.85
2017-09-10T13:49:13.460Z,48.66
2017-09-10T13:50:13.466Z,48.76
2017-09-10T13:51:13.509Z,48.76
2017-09-10T13:52:13.601Z,48.66
2017-09-10T13:53:13.924Z,48.85
2017-09-10T13:54:13.754Z,48.66
2017-09-10T13:55:13.727Z,49.15
2017-09-10T13:56:13.675Z,48.66
2017-09-10T13:57:13.761Z,49.15
2017-09-10T13:58:13.778Z,48.95
2017-09-10T13:59:14.160Z,48.66
2017-09-10T14:00:13.863Z,48.95
2017-09-10T14:01:13.919Z,48.95
2017-09-10T14:02:13.932Z,48.95
2017-09-10T14:03:14.016Z,48.85
2017-09-10T14:04:13.984Z,48.85
2017-09-10T14:05:14.373Z,48.85
2017-09-10T14:06:14.071Z,48.66
2017-09-10T14:07:14.163Z,48.95
2017-09-10T14:08:14.202Z,48.66
2017-09-10T14:09:14.287Z,48.95
2017-09-10T14:10:14.272Z,48.95
2017-09-10T14:11:14.599Z,48.66
2017-09-10T14:12:14.371Z,48.95
2017-09-10T14:13:14.398Z,48.76
2017-09-10T14:14:14.436Z,48.95
2017-09-10T14:15:14.586Z,48.88
2017-09-10T14:16:14.449Z,48.88
2017-09-10T14:17:14.855Z,49.07
2017-09-10T14:18:14.577Z,48.49
2017-09-10T14:19:14.629Z,48.78
2017-09-10T14:20:14.675Z,48.59
2017-09-10T14:21:14.705Z,48.69
2017-09-10T14:22:14.759Z,48.78
2017-09-10T14:23:15.086Z,48.88
2017-09-10T14:24:14.768Z,48.30
2017-09-10T14:25:14.894Z,48.49
2017-09-10T14:26:14.838Z,48.59
2017-09-10T14:27:14.920Z,48.59
2017-09-10T14:28:14.968Z,48.69
2017-09-10T14:29:15.017Z,48.39
2017-09-10T14:30:15.334Z,48.49
2017-09-10T14:31:15.080Z,48.30
2017-09-10T14:32:15.077Z,48.20
2017-09-10T14:33:15.120Z,48.39
2017-09-10T14:34:15.171Z,48.20
2017-09-10T14:35:15.248Z,48.20
2017-09-10T14:36:15.229Z,48.10
2017-09-10T14:37:15.627Z,48.30
2017-09-10T14:38:15.334Z,48.49
2017-09-10T14:39:15.335Z,48.00
2017-09-10T14:40:15.459Z,48.30
2017-09-10T14:41:15.425Z,48.30
2017-09-10T14:42:15.425Z,47.91
2017-09-10T14:43:15.468Z,48.00
2017-09-10T14:44:15.864Z,47.91
2017-09-10T14:45:15.620Z,47.93
2017-09-10T14:46:15.643Z,48.22
2017-09-10T14:47:15.640Z,48.22
2017-09-10T14:48:15.779Z,48.20
2017-09-10T14:49:15.715Z,48.22
2017-09-10T14:50:15.901Z,48.22
2017-09-10T14:51:16.168Z,47.93
2017-09-10T14:52:15.880Z,47.83
2017-09-10T14:53:15.918Z,48.00
2017-09-10T14:54:15.949Z,47.91
2017-09-10T14:55:15.981Z,47.81
2017-09-10T14:56:16.036Z,48.10
2017-09-10T14:57:16.221Z,47.81
2017-09-10T14:58:16.550Z,48.10
2017-09-10T14:59:16.182Z,48.10
2017-09-10T15:00:17.226Z,47.91
2017-09-10T15:01:18.360Z,48.00
2017-09-10T15:03:23.894Z,47.91
2017-09-10T15:04:18.381Z,48.30
2017-09-10T15:07:23.864Z,48.30
2017-09-10T15:08:20.756Z,48.30
2017-09-10T15:10:17.701Z,48.59
2017-09-10T15:11:18.125Z,48.59
2017-09-10T15:14:17.735Z,47.69
2017-09-10T15:16:20.919Z,47.02
2017-09-10T15:17:19.182Z,46.04
2017-09-10T15:20:18.170Z,44.78
2017-09-10T15:22:17.021Z,43.72
2017-09-10T15:23:17.144Z,43.72
2017-09-10T15:24:17.096Z,44.47
2017-09-10T15:25:17.088Z,44.09
2017-09-10T15:26:17.479Z,43.79
2017-09-10T15:27:17.156Z,43.70
2017-09-10T15:28:17.363Z,44.27
2017-09-10T15:29:17.266Z,43.70
2017-09-10T15:30:17.251Z,42.24
2017-09-10T15:31:17.298Z,42.05
2017-09-10T15:32:17.336Z,42.34
2017-09-10T15:33:17.733Z,41.95
2017-09-10T15:34:17.400Z,41.47
2017-09-10T15:35:17.444Z,41.45
2017-09-10T15:36:17.484Z,41.93
2017-09-10T15:37:17.552Z,42.13
2017-09-10T15:38:17.588Z,42.32
2017-09-10T15:39:17.654Z,42.41
2017-09-10T15:40:17.920Z,41.93
2017-09-10T15:41:17.698Z,41.45
2017-09-10T15:42:17.770Z,42.32
2017-09-10T15:43:17.799Z,42.51
2017-09-10T15:44:17.761Z,43.19
2017-09-10T15:45:17.891Z,43.09
2017-09-10T15:46:17.884Z,43.38
2017-09-10T15:47:18.255Z,43.68
2017-09-10T15:48:17.943Z,44.26
2017-09-10T15:49:17.955Z,44.54
2017-09-10T15:50:18.017Z,44.16
2017-09-10T15:51:18.042Z,44.74
2017-09-10T15:52:18.130Z,44.64
2017-09-10T15:53:18.118Z,43.00
2017-09-10T15:54:18.509Z,43.09
2017-09-10T15:55:18.284Z,42.90
2017-09-10T15:56:18.256Z,43.09
2017-09-10T15:57:18.313Z,42.03
2017-09-10T15:58:18.319Z,43.09
2017-09-10T15:59:18.391Z,43.00
2017-09-10T16:00:18.761Z,43.09
2017-09-10T16:01:18.384Z,43.19
2017-09-10T16:02:18.504Z,43.19
2017-09-10T16:03:18.542Z,43.68
2017-09-10T16:04:18.513Z,43.95
2017-09-10T16:05:18.630Z,44.23
2017-09-10T16:06:18.943Z,44.74
2017-09-10T16:07:18.638Z,44.64
2017-09-10T16:08:18.657Z,44.64
2017-09-10T16:09:18.692Z,44.06
2017-09-10T16:10:18.775Z,44.74
2017-09-10T16:11:18.744Z,44.74
2017-09-10T16:12:19.214Z,44.74
2017-09-10T16:13:18.880Z,45.90
2017-09-10T16:14:18.858Z,45.90
2017-09-10T16:15:18.907Z,45.71
2017-09-10T16:16:19.012Z,45.42
2017-09-10T16:17:19.073Z,45.22
2017-09-10T16:18:19.396Z,44.74
2017-09-10T16:19:19.084Z,44.74
2017-09-10T16:20:19.089Z,43.96
2017-09-10T16:21:19.109Z,44.35
2017-09-10T16:22:19.252Z,44.45
2017-09-10T16:23:19.197Z,44.45
2017-09-10T16:24:19.807Z,44.74
2017-09-10T16:25:19.316Z,44.93
2017-09-10T16:26:19.358Z,44.45
2017-09-10T16:27:19.375Z,44.26
2017-09-10T16:28:19.412Z,43.96
2017-09-10T16:29:19.481Z,44.35
2017-09-10T16:30:19.821Z,44.64
2017-09-10T16:31:19.477Z,44.35
2017-09-10T16:32:19.540Z,44.45
2017-09-10T16:33:19.578Z,44.84
2017-09-10T16:34:19.583Z,44.74
2017-09-10T16:35:19.696Z,44.84
2017-09-10T16:36:20.191Z,44.84
2017-09-10T16:37:19.779Z,45.32
2017-09-10T16:38:19.936Z,45.32
2017-09-10T16:39:19.768Z,45.03
2017-09-10T16:40:19.850Z,45.22
2017-09-10T16:41:19.929Z,45.32
2017-09-10T16:42:20.293Z,45.13
2017-09-10T16:43:20.042Z,45.13
2017-09-10T16:44:19.983Z,45.32
2017-09-10T16:45:20.110Z,45.22
2017-09-10T16:46:20.084Z,45.61
2017-09-10T16:47:20.082Z,45.32
2017-09-10T16:48:20.450Z,45.81
2017-09-10T16:50:20.171Z,45.90
2017-09-10T16:51:20.278Z,45.71
2017-09-10T16:52:20.266Z,46.00
2017-09-10T16:53:20.281Z,46.19
2017-09-10T16:54:20.667Z,45.71
2017-09-10T16:55:20.430Z,46.00
2017-09-10T16:56:20.536Z,46.09
2017-09-10T16:57:20.460Z,46.09
2017-09-10T16:58:20.530Z,46.00
2017-09-10T16:59:20.567Z,45.81
2017-09-10T17:00:21.081Z,45.71
2017-09-10T17:01:20.618Z,45.90
2017-09-10T17:02:20.627Z,45.90
2017-09-10T17:03:20.680Z,45.32
2017-09-10T17:04:20.695Z,46.00
2017-09-10T17:05:20.768Z,46.09
2017-09-10T17:06:21.155Z,46.00
2017-09-10T17:07:20.856Z,45.71
2017-09-10T17:08:20.914Z,45.71
2017-09-10T17:09:20.942Z,45.81
2017-09-10T17:10:20.912Z,45.22
2017-09-10T17:11:21.402Z,45.90
2017-09-10T17:12:21.400Z,45.03
2017-09-10T17:13:21.083Z,45.61
2017-09-10T17:14:21.097Z,45.81
2017-09-10T17:15:21.142Z,44.74
2017-09-10T17:16:21.137Z,44.45
2017-09-10T17:17:21.156Z,44.45
2017-09-10T17:18:21.275Z,44.35
2017-09-10T17:19:21.597Z,44.84
2017-09-10T17:20:21.366Z,43.85
2017-09-10T17:21:21.356Z,44.43
2017-09-10T17:22:21.392Z,43.46
2017-09-10T17:23:21.449Z,43.55
2017-09-10T17:24:21.463Z,44.72
2017-09-10T17:25:21.533Z,44.81
2017-09-10T17:26:21.837Z,44.43
2017-09-10T17:27:21.585Z,44.62
2017-09-10T17:28:21.818Z,44.72
2017-09-10T17:29:21.736Z,44.13
2017-09-10T17:30:21.677Z,45.01
2017-09-10T17:31:21.901Z,45.18
2017-09-10T17:32:21.748Z,45.18
2017-09-10T17:33:22.112Z,44.91
2017-09-10T17:34:21.778Z,45.37
2017-09-10T17:35:21.892Z,45.88
2017-09-10T17:36:21.851Z,45.20
2017-09-10T17:37:21.886Z,44.98
2017-09-10T17:38:21.935Z,44.21
2017-09-10T17:39:21.961Z,45.01
2017-09-10T17:40:22.359Z,45.40
2017-09-10T17:41:22.025Z,45.86
2017-09-10T17:42:22.131Z,45.86
2017-09-10T17:43:22.116Z,44.40
2017-09-10T17:44:22.151Z,45.37
2017-09-10T17:45:22.245Z,45.57
2017-09-10T17:46:22.282Z,46.25
2017-09-10T17:47:22.619Z,46.63
2017-09-10T17:48:22.447Z,47.02
2017-09-10T17:49:22.401Z,47.02
2017-09-10T17:50:22.349Z,47.31
2017-09-10T17:51:22.482Z,46.92
2017-09-10T17:52:22.419Z,47.31
2017-09-10T17:53:22.454Z,46.73
2017-09-10T17:54:22.845Z,46.73
2017-09-10T17:55:22.534Z,47.31
2017-09-10T17:56:22.618Z,47.41
2017-09-10T17:57:22.650Z,47.11
2017-09-10T17:58:22.687Z,47.31
2017-09-10T17:59:22.726Z,47.31
2017-09-10T18:00:22.729Z,46.83
2017-09-10T18:01:23.098Z,47.31
2017-09-10T18:02:22.846Z,47.11
2017-09-10T18:03:22.908Z,47.41
2017-09-10T18:04:22.930Z,47.41
2017-09-10T18:05:22.959Z,47.41
2017-09-10T18:06:22.998Z,47.31
2017-09-10T18:07:23.062Z,47.89
2017-09-10T18:08:23.372Z,47.21
2017-09-10T18:09:23.145Z,47.21
2017-09-10T18:10:23.147Z,47.21
2017-09-10T18:11:23.226Z,46.63
2017-09-10T18:12:23.209Z,46.25
2017-09-10T18:13:23.288Z,45.86
2017-09-10T18:14:23.315Z,46.05
2017-09-10T18:15:23.709Z,45.66
2017-09-10T18:16:23.339Z,45.08
2017-09-10T18:17:23.396Z,44.67
2017-09-10T18:19:23.504Z,44.57
2017-09-10T18:20:23.562Z,44.29
2017-09-10T18:21:23.764Z,44.38
2017-09-10T18:22:23.865Z,44.48
2017-09-10T18:23:23.681Z,43.90
2017-09-10T18:24:23.662Z,43.80
2017-09-10T18:25:23.718Z,43.71
2017-09-10T18:26:23.715Z,43.90
2017-09-10T18:27:23.692Z,43.61
2017-09-10T18:28:23.784Z,43.23
2017-09-10T18:29:24.251Z,43.71
2017-09-10T18:30:23.950Z,43.41
2017-09-10T18:32:23.935Z,43.51
2017-09-10T18:33:24.013Z,43.51
2017-09-10T18:34:24.036Z,43.03
2017-09-10T18:35:24.032Z,43.41
2017-09-10T18:36:24.446Z,43.20
2017-09-10T18:37:24.184Z,43.32
2017-09-10T18:38:24.221Z,43.23
2017-09-10T18:39:24.241Z,43.30
2017-09-10T18:40:24.307Z,43.61
2017-09-10T18:41:24.278Z,42.83
2017-09-10T18:42:24.669Z,42.93
2017-09-10T18:43:24.895Z,43.51
2017-09-10T18:44:24.497Z,43.51
2017-09-10T18:45:25.712Z,43.13
2017-09-10T18:46:24.424Z,43.13
2017-09-10T18:47:24.621Z,43.13
2017-09-10T18:48:24.487Z,43.32
2017-09-10T18:49:24.969Z,43.30
2017-09-10T18:50:24.636Z,43.23
2017-09-10T18:52:24.636Z,43.88
2017-09-10T18:53:24.718Z,43.20
2017-09-10T18:55:25.043Z,43.20
2017-09-10T18:56:24.845Z,43.20
2017-09-10T18:57:26.469Z,43.10
2017-09-10T18:58:25.393Z,43.40
2017-09-10T19:00:25.017Z,43.68
2017-09-10T19:01:25.887Z,43.68
2017-09-10T19:02:25.290Z,43.49
2017-09-10T19:03:25.732Z,43.78
2017-09-10T19:04:25.078Z,43.59
2017-09-10T19:05:25.213Z,43.88
2017-09-10T19:06:25.222Z,43.68
2017-09-10T19:07:25.627Z,43.49
2017-09-10T19:09:25.330Z,43.88
2017-09-10T19:10:25.320Z,43.59
2017-09-10T19:11:25.293Z,43.78
2017-09-10T19:12:25.364Z,44.07
2017-09-10T19:14:25.906Z,43.78
2017-09-10T19:15:25.551Z,43.88
2017-09-10T19:16:25.561Z,43.78
2017-09-10T19:17:25.740Z,44.17
2017-09-10T19:18:25.882Z,44.46
2017-09-10T19:19:26.705Z,44.36
2017-09-10T19:21:25.778Z,44.36
2017-09-10T19:22:25.712Z,44.56
2017-09-10T19:23:25.745Z,44.65
2017-09-10T19:24:25.940Z,44.65
2017-09-10T19:25:25.835Z,45.14
2017-09-10T19:26:25.868Z,44.94
2017-09-10T19:27:26.178Z,45.04
2017-09-10T19:28:25.829Z,45.33
2017-09-10T19:29:25.942Z,45.42
2017-09-10T19:30:25.952Z,45.62
2017-09-10T19:31:25.968Z,45.81
2017-09-10T19:32:25.987Z,46.00
2017-09-10T19:33:26.368Z,45.62
2017-09-10T19:34:26.163Z,45.81
2017-09-10T19:35:26.070Z,45.62
2017-09-10T19:36:26.252Z,45.52
2017-09-10T19:37:26.151Z,45.62
2017-09-10T19:38:26.228Z,45.52
2017-09-10T19:39:26.602Z,45.52
2017-09-10T19:40:26.247Z,45.81
2017-09-10T19:41:26.304Z,46.10
2017-09-10T19:42:26.366Z,46.10
2017-09-10T19:43:26.443Z,45.81
2017-09-10T19:44:26.465Z,46.00
2017-09-10T19:45:26.784Z,46.30
2017-09-10T19:46:26.547Z,46.20
2017-09-10T19:47:26.546Z,46.10
2017-09-10T19:48:26.583Z,46.10
2017-09-10T19:49:26.573Z,46.39
2017-09-10T19:50:26.668Z,46.20
2017-09-10T19:51:26.983Z,46.58
2017-09-10T19:52:26.667Z,46.88
2017-09-10T19:53:26.718Z,46.58
2017-09-10T19:54:26.811Z,46.88
2017-09-10T19:55:26.851Z,46.78
2017-09-10T19:56:26.893Z,46.97
2017-09-10T19:57:27.221Z,47.16
2017-09-10T19:58:26.975Z,47.26
2017-09-10T19:59:26.989Z,47.65
2017-09-10T20:00:26.949Z,46.97
2017-09-10T20:01:27.056Z,47.45
2017-09-10T20:02:27.068Z,47.36
2017-09-10T20:03:27.077Z,47.55
2017-09-10T20:04:27.478Z,47.36
2017-09-10T20:06:33.823Z,47.36
2017-09-10T20:07:33.889Z,47.55
2017-09-10T20:08:33.868Z,48.61
2017-09-10T20:09:33.907Z,48.71
2017-09-10T20:10:33.991Z,49.60
2017-09-10T20:11:34.279Z,48.06
2017-09-10T20:12:34.010Z,47.48
2017-09-10T20:13:34.046Z,47.58
2017-09-10T20:14:34.133Z,47.38
2017-09-10T20:15:34.173Z,46.90
2017-09-10T20:16:34.201Z,47.09
2017-09-10T20:17:34.485Z,46.90
2017-09-10T20:18:34.221Z,47.00
2017-09-10T20:19:34.267Z,47.28
2017-09-10T20:20:34.288Z,47.00
2017-09-10T20:21:34.383Z,47.09
2017-09-10T20:22:34.357Z,47.00
2017-09-10T20:23:34.698Z,47.00
2017-09-10T20:24:34.427Z,47.00
2017-09-10T20:25:34.549Z,47.00
2017-09-10T20:26:34.503Z,47.00
2017-09-10T20:27:34.533Z,47.00
2017-09-10T20:28:34.580Z,47.00
2017-09-10T20:29:34.900Z,46.80
2017-09-10T20:30:34.686Z,47.28
2017-09-10T20:31:34.671Z,47.19
2017-09-10T20:32:34.708Z,47.09
2017-09-10T20:33:34.761Z,46.80
2017-09-10T20:34:34.778Z,46.70
2017-09-10T20:35:35.124Z,47.00
2017-09-10T20:36:34.918Z,47.19
2017-09-10T20:37:34.897Z,47.28
2017-09-10T20:39:34.955Z,47.19
2017-09-10T20:40:35.089Z,47.38
2017-09-10T20:41:35.324Z,47.19
2017-09-10T20:42:35.066Z,47.19
2017-09-10T20:43:35.096Z,47.09
2017-09-10T20:44:35.152Z,47.86
2017-09-10T20:45:35.315Z,47.67
2017-09-10T20:46:35.199Z,47.67
2017-09-10T20:47:35.549Z,47.58
2017-09-10T20:48:35.268Z,47.67
2017-09-10T20:49:35.305Z,47.48
2017-09-10T20:50:35.343Z,47.86
2017-09-10T20:51:35.579Z,48.35
2017-09-10T20:52:35.498Z,48.06
2017-09-10T20:53:35.768Z,47.96
2017-09-10T20:54:35.483Z,47.96
2017-09-10T20:55:35.515Z,47.96
2017-09-10T20:56:35.574Z,47.86
2017-09-10T20:57:35.588Z,47.96
2017-09-10T20:58:35.627Z,47.86
2017-09-10T20:59:35.958Z,47.67
2017-09-10T21:00:35.699Z,47.86
2017-09-10T21:01:35.725Z,47.67
2017-09-10T21:02:35.761Z,47.86
2017-09-10T21:03:35.820Z,47.77
2017-09-10T21:04:35.831Z,47.67
2017-09-10T21:05:36.173Z,47.67
2017-09-10T21:06:35.902Z,48.16
2017-09-10T21:07:35.991Z,48.16
2017-09-10T21:08:35.969Z,48.18
2017-09-10T21:09:36.010Z,48.16
2017-09-10T21:10:36.049Z,48.08
2017-09-10T21:11:36.381Z,48.16
2017-09-10T21:12:36.112Z,48.27
2017-09-10T21:13:36.253Z,48.25
2017-09-10T21:14:36.186Z,48.18
2017-09-10T21:15:36.217Z,48.54
2017-09-10T21:16:36.256Z,48.06
2017-09-10T21:17:36.593Z,48.76
2017-09-10T21:18:36.327Z,48.35
2017-09-10T21:19:36.356Z,48.47
2017-09-10T21:20:36.396Z,48.64
2017-09-10T21:21:36.432Z,48.74
2017-09-10T21:22:36.472Z,48.54
2017-09-10T21:23:36.818Z,48.44
2017-09-10T21:24:36.533Z,48.54
2017-09-10T21:25:36.573Z,48.54
2017-09-10T21:26:36.602Z,48.44
2017-09-10T21:27:36.641Z,48.54
2017-09-10T21:28:36.925Z,48.76
2017-09-10T21:29:37.009Z,48.44
2017-09-10T21:30:36.750Z,48.74
2017-09-10T21:31:36.779Z,48.74
2017-09-10T21:32:36.816Z,48.64
2017-09-10T21:33:36.865Z,48.74
2017-09-10T21:34:36.989Z,48.74
2017-09-10T21:35:37.221Z,48.35
2017-09-10T21:36:36.957Z,48.35
2017-09-10T21:38:37.052Z,47.67
2017-09-10T21:39:37.111Z,47.86
2017-09-10T21:40:37.098Z,47.86
2017-09-10T21:41:37.450Z,48.64
2017-09-10T21:42:37.221Z,48.44
2017-09-10T21:45:37.294Z,49.02
2017-09-10T21:46:37.325Z,49.41
2017-09-10T21:47:37.345Z,49.82
2017-09-10T21:48:37.679Z,49.73
2017-09-10T21:49:37.462Z,49.51
2017-09-10T21:50:37.447Z,49.41
2017-09-10T21:53:37.658Z,49.60
2017-09-10T21:54:37.591Z,49.80
2017-09-10T21:55:37.925Z,49.70
2017-09-10T21:56:37.665Z,49.12
2017-09-10T21:57:37.695Z,49.41
2017-09-10T21:58:37.741Z,49.70
2017-09-10T21:59:38.014Z,48.93
2017-09-10T22:00:37.810Z,48.83
2017-09-10T22:01:37.864Z,48.64
2017-09-10T22:02:38.169Z,48.54
2017-09-10T22:03:37.911Z,48.54
2017-09-10T22:04:37.994Z,48.64
2017-09-10T22:05:37.979Z,48.54
2017-09-10T22:06:38.017Z,48.44
2017-09-10T22:07:38.049Z,48.35
2017-09-10T22:08:38.083Z,48.54
2017-09-10T22:09:38.414Z,48.83
2017-09-10T22:10:38.158Z,48.16
2017-09-10T22:11:38.186Z,48.06
2017-09-10T22:12:38.226Z,48.16
2017-09-10T22:13:38.257Z,48.16
2017-09-10T22:14:38.343Z,47.67
2017-09-10T22:15:38.330Z,47.96
2017-09-10T22:16:38.665Z,47.67
2017-09-10T22:17:38.404Z,47.67
2017-09-10T22:18:38.433Z,47.96
2017-09-10T22:19:38.468Z,48.16
2017-09-10T22:20:38.507Z,47.96
2017-09-10T22:21:38.539Z,47.65
2017-09-10T22:22:38.577Z,47.48
2017-09-10T22:23:38.923Z,47.48
2017-09-10T22:24:38.665Z,47.96
2017-09-10T22:25:38.746Z,47.86
2017-09-10T22:26:38.725Z,47.67
2017-09-10T22:27:38.755Z,47.58
2017-09-10T22:28:39.016Z,47.58
2017-09-10T22:29:38.823Z,47.58
2017-09-10T22:30:39.229Z,47.67
2017-09-10T22:31:38.888Z,47.58
2017-09-10T22:32:38.924Z,47.77
2017-09-10T22:33:39.058Z,47.58
2017-09-10T22:34:38.992Z,47.58
2017-09-10T22:35:39.037Z,47.67
2017-09-10T22:36:39.066Z,47.58
2017-09-10T22:37:39.409Z,47.67
2017-09-10T22:38:39.188Z,47.58
2017-09-10T22:39:39.171Z,47.58
2017-09-10T22:40:39.207Z,47.58
2017-09-10T22:41:39.240Z,48.54
2017-09-10T22:42:39.335Z,49.70
2017-09-10T22:43:39.306Z,49.12
2017-09-10T22:44:39.655Z,49.80
2017-09-10T22:45:39.377Z,50.28
2017-09-10T22:46:39.427Z,50.67
2017-09-10T22:47:39.448Z,50.26
2017-09-10T22:48:39.495Z,50.45
2017-09-10T22:49:39.639Z,50.28
